Time;durP1;ratioP1;P1;durP2;ratioP2;P2;SDS_P1;SDS_P2;PMS_P1;PMS_P2;Temp;Humidity;BMP_temperature;BMP_pressure;BME280_temperature;BME280_humidity;BME280_pressure;Samples;Min_cycle;Max_cycle;Signal;HPM_P1;HPM_P2
2021/08/18 00:00:12;;;;;;;7.67;3.58;;;;;;;16.06;66.97;100175.42;1817929;78;21023;-83
2021/08/18 00:02:40;;;;;;;6.20;3.85;;;;;;;16.05;66.97;100173.68;1817816;79;21038;-83
2021/08/18 00:05:09;;;;;;;7.97;3.37;;;;;;;16.06;67.00;100180.73;1818042;78;21050;-84
2021/08/18 00:07:36;;;;;;;7.90;3.95;;;;;;;16.04;66.96;100177.66;1818137;78;21062;-84
2021/08/18 00:10:07;;;;;;;6.85;3.85;;;;;;;16.01;66.96;100171.95;1817527;78;21051;-83
2021/08/18 00:12:33;;;;;;;9.85;4.35;;;;;;;16.01;66.97;100175.92;1815641;78;21066;-84
2021/08/18 00:15:00;;;;;;;6.65;3.65;;;;;;;16.01;66.96;100181.23;1817900;78;22581;-84
2021/08/18 00:17:27;;;;;;;9.78;3.80;;;;;;;15.99;66.98;100181.69;1804266;78;21047;-84
2021/08/18 00:19:53;;;;;;;10.48;4.08;;;;;;;16.00;66.96;100179.45;1815530;78;21058;-84
2021/08/18 00:22:20;;;;;;;7.92;3.60;;;;;;;16.00;66.96;100183.44;1818117;78;21081;-83
2021/08/18 00:24:46;;;;;;;9.70;4.20;;;;;;;16.03;66.98;100184.76;1818169;79;21963;-84
2021/08/18 00:27:13;;;;;;;6.00;3.98;;;;;;;16.03;66.95;100179.45;1818096;78;22532;-84
2021/08/18 00:29:40;;;;;;;8.88;3.98;;;;;;;16.03;66.95;100179.45;1818096;78;21042;-84
2021/08/18 00:32:08;;;;;;;5.92;3.83;;;;;;;16.04;66.98;100174.56;1818144;78;21038;-84
2021/08/18 00:34:35;;;;;;;7.33;4.03;;;;;;;16.02;66.93;100175.02;1817982;78;20980;-84
2021/08/18 00:37:04;;;;;;;9.13;4.30;;;;;;;16.01;66.96;100168.39;1817685;78;21081;-84
2021/08/18 00:39:31;;;;;;;9.83;4.15;;;;;;;15.99;66.95;100171.08;1817709;78;22712;-84
2021/08/18 00:41:57;;;;;;;9.93;4.45;;;;;;;15.97;66.96;100172.83;1817958;78;21034;-84
2021/08/18 00:44:24;;;;;;;9.58;4.03;;;;;;;15.92;66.99;100166.23;1818248;78;21070;-83
2021/08/18 00:46:53;;;;;;;8.00;4.10;;;;;;;15.90;67.03;100174.66;1812647;78;21086;-83
2021/08/18 00:49:21;;;;;;;5.70;3.70;;;;;;;15.87;67.07;100173.80;1818173;78;21137;-84
2021/08/18 00:51:51;;;;;;;10.98;4.80;;;;;;;15.83;67.10;100179.56;1818174;78;21750;-84
2021/08/18 00:54:22;;;;;;;11.48;4.15;;;;;;;15.80;67.16;100186.66;1818084;78;21105;-84
2021/08/18 00:56:49;;;;;;;10.53;4.12;;;;;;;15.78;67.19;100187.11;1783334;78;21015;-84
2021/08/18 00:59:15;;;;;;;5.33;3.90;;;;;;;15.72;67.20;100182.23;1788131;78;21003;-83
2021/08/18 01:01:42;;;;;;;7.22;3.90;;;;;;;15.69;67.24;100167.67;1818008;78;21484;-84
2021/08/18 01:04:09;;;;;;;6.03;3.40;;;;;;;15.64;67.27;100166.80;1817917;78;22558;-84
2021/08/18 01:06:40;;;;;;;8.50;3.85;;;;;;;15.60;67.30;100153.13;1817895;78;20995;-84
2021/08/18 01:09:13;;;;;;;9.03;3.60;;;;;;;15.55;67.33;100156.23;1817834;78;21548;-83
2021/08/18 01:11:42;;;;;;;5.50;3.85;;;;;;;15.50;67.34;100167.30;1813091;78;21370;-84
2021/08/18 01:14:09;;;;;;;5.80;3.42;;;;;;;15.46;67.46;100173.06;1815446;78;21077;-83
2021/08/18 01:16:38;;;;;;;6.47;3.35;;;;;;;15.44;67.53;100175.30;1818094;78;21731;-83
2021/08/18 01:19:05;;;;;;;8.48;3.08;;;;;;;15.42;67.61;100185.03;1818123;78;21046;-83
2021/08/18 01:21:38;;;;;;;3.85;3.22;;;;;;;15.43;67.65;100184.13;1818172;78;21077;-83
2021/08/18 01:24:05;;;;;;;6.87;3.53;;;;;;;15.43;67.63;100182.80;1813131;78;20995;-84
2021/08/18 01:26:32;;;;;;;5.00;2.70;;;;;;;15.45;67.61;100188.56;1818237;78;21057;-83
2021/08/18 01:28:59;;;;;;;3.60;2.27;;;;;;;15.45;67.57;100187.69;1817803;78;22606;-83
2021/08/18 01:31:26;;;;;;;4.62;2.47;;;;;;;15.44;67.56;100195.19;1817950;78;20992;-84
2021/08/18 01:33:53;;;;;;;4.92;2.12;;;;;;;15.44;67.60;100192.09;1811868;78;21583;-84
2021/08/18 01:36:22;;;;;;;4.12;2.55;;;;;;;15.45;67.57;100195.19;1818098;78;21054;-84
2021/08/18 01:38:48;;;;;;;4.70;2.50;;;;;;;15.49;67.58;100204.02;1813440;78;20999;-84
2021/08/18 01:41:15;;;;;;;2.20;1.70;;;;;;;15.50;67.61;100209.33;1809783;78;21774;-84
2021/08/18 01:43:42;;;;;;;3.98;1.90;;;;;;;15.52;67.60;100213.27;1817625;78;21066;-84
2021/08/18 01:46:10;;;;;;;4.90;1.92;;;;;;;15.57;67.77;100210.16;1813811;78;21109;-84
2021/08/18 01:48:37;;;;;;;4.83;2.17;;;;;;;15.59;67.99;100205.73;1817857;78;21065;-84
2021/08/18 01:51:06;;;;;;;6.05;2.77;;;;;;;15.58;68.24;100198.68;1817733;78;21003;-84
2021/08/18 01:53:34;;;;;;;4.55;2.60;;;;;;;15.50;68.39;100199.13;1818064;78;21765;-84
2021/08/18 01:56:05;;;;;;;5.28;2.98;;;;;;;15.39;68.60;100192.98;1817832;78;21022;-84
2021/08/18 01:58:34;;;;;;;5.33;2.50;;;;;;;15.28;68.87;100193.05;1817373;78;21070;-83
2021/08/18 02:01:01;;;;;;;5.40;3.15;;;;;;;15.14;69.15;100199.70;1818095;78;21015;-82
2021/08/18 02:03:27;;;;;;;5.55;3.22;;;;;;;15.02;69.40;100203.72;1818251;78;21062;-84
2021/08/18 02:05:54;;;;;;;7.60;3.60;;;;;;;14.90;69.60;100212.13;1818094;78;21724;-83
2021/08/18 02:08:20;;;;;;;6.35;3.30;;;;;;;14.81;69.87;100207.26;1817810;78;21062;-83
2021/08/18 02:10:47;;;;;;;6.22;3.72;;;;;;;14.74;70.18;100205.95;1817583;78;20971;-83
2021/08/18 02:13:14;;;;;;;6.78;3.58;;;;;;;14.74;70.49;100209.92;1817932;78;21022;-83
2021/08/18 02:15:41;;;;;;;11.93;4.10;;;;;;;14.75;70.65;100203.75;1817748;78;21026;-83
2021/08/18 02:18:07;;;;;;;8.95;3.90;;;;;;;14.78;70.76;100202.86;1817976;78;21742;-83
2021/08/18 02:20:36;;;;;;;7.65;3.80;;;;;;;14.78;70.84;100198.88;1817783;78;21038;-83
2021/08/18 02:23:03;;;;;;;10.78;4.70;;;;;;;14.77;70.97;100191.80;1817801;78;21547;-83
2021/08/18 02:25:29;;;;;;;9.58;3.80;;;;;;;14.81;71.06;100198.89;1818089;78;21579;-83
2021/08/18 02:27:56;;;;;;;10.90;4.40;;;;;;;14.83;71.00;100189.17;1818032;78;21015;-83
2021/08/18 02:30:25;;;;;;;12.98;4.25;;;;;;;14.86;71.06;100194.45;1817881;78;21793;-83
2021/08/18 02:32:52;;;;;;;10.50;4.60;;;;;;;14.92;71.18;100203.73;1817783;78;21058;-83
2021/08/18 02:35:19;;;;;;;13.22;4.47;;;;;;;14.99;71.23;100203.72;1817870;78;21070;-84
2021/08/18 02:37:46;;;;;;;13.15;5.35;;;;;;;15.03;71.18;100200.16;1817898;78;20998;-84
2021/08/18 02:40:18;;;;;;;9.73;4.50;;;;;;;15.00;71.03;100206.37;1809902;78;21534;-84
2021/08/18 02:42:43;;;;;;;11.85;5.53;;;;;;;14.92;71.04;100202.83;1814145;78;21827;-83
2021/08/18 02:45:11;;;;;;;9.85;5.35;;;;;;;14.91;71.17;100199.30;1817886;78;22299;-83
2021/08/18 02:47:37;;;;;;;11.65;4.97;;;;;;;14.94;71.25;100199.73;1817781;78;21588;-83
2021/08/18 02:50:06;;;;;;;8.60;5.00;;;;;;;14.89;71.06;100197.10;1817937;78;21022;-83
2021/08/18 02:52:32;;;;;;;12.88;5.22;;;;;;;14.86;71.20;100195.77;1817837;78;21267;-83
2021/08/18 02:54:59;;;;;;;12.07;4.78;;;;;;;14.86;71.31;100197.09;1817766;78;21740;-83
2021/08/18 02:57:26;;;;;;;9.20;5.72;;;;;;;14.87;71.25;100192.25;1817796;78;21045;-83
2021/08/18 02:59:56;;;;;;;12.28;5.67;;;;;;;14.88;71.29;100202.40;1817870;78;21097;-84
2021/08/18 03:02:24;;;;;;;9.88;5.60;;;;;;;14.91;71.37;100201.08;1813675;78;21065;-84
2021/08/18 03:04:50;;;;;;;15.18;6.20;;;;;;;14.98;71.41;100201.52;1817865;78;21113;-83
2021/08/18 03:07:17;;;;;;;14.18;6.10;;;;;;;15.02;71.38;100190.47;1817737;78;21741;-83
2021/08/18 03:09:44;;;;;;;11.45;5.50;;;;;;;15.04;71.33;100193.55;1817701;78;21028;-84
2021/08/18 03:12:11;;;;;;;10.05;5.35;;;;;;;15.09;71.31;100203.70;1817952;78;21543;-84
2021/08/18 03:14:37;;;;;;;10.70;5.00;;;;;;;15.08;71.25;100190.45;1817579;78;21081;-84
2021/08/18 03:17:04;;;;;;;11.10;5.17;;;;;;;15.21;71.20;100207.20;1817798;78;21070;-84
2021/08/18 03:19:31;;;;;;;10.48;5.03;;;;;;;15.24;71.10;100211.16;1817588;78;22569;-83
2021/08/18 03:21:57;;;;;;;11.93;5.20;;;;;;;15.30;71.11;100211.16;1817686;78;21078;-83
2021/08/18 03:24:24;;;;;;;13.88;5.45;;;;;;;15.33;71.03;100209.39;1787487;78;21539;-83
2021/08/18 03:26:51;;;;;;;11.68;5.00;;;;;;;15.38;70.92;100207.16;1818075;78;21022;-83
2021/08/18 03:29:18;;;;;;;9.58;4.85;;;;;;;15.41;70.80;100205.38;1813644;78;21546;-83
2021/08/18 03:31:45;;;;;;;13.78;5.00;;;;;;;15.44;70.71;100205.34;1813654;78;22575;-83
2021/08/18 03:34:11;;;;;;;9.50;4.72;;;;;;;15.46;70.65;100210.66;1817429;78;21014;-83
2021/08/18 03:36:38;;;;;;;11.28;4.60;;;;;;;15.45;70.50;100207.13;1811549;79;21067;-83
2021/08/18 03:39:05;;;;;;;12.65;4.50;;;;;;;15.43;70.42;100202.69;1810374;78;20995;-83
2021/08/18 03:41:31;;;;;;;8.73;4.30;;;;;;;15.40;70.32;100186.36;1817608;78;21069;-83
2021/08/18 03:43:58;;;;;;;7.72;4.25;;;;;;;15.38;70.35;100181.97;1817682;78;21768;-83
2021/08/18 03:46:25;;;;;;;7.75;4.37;;;;;;;15.37;70.32;100179.73;1817755;78;21012;-83
2021/08/18 03:48:51;;;;;;;11.63;4.42;;;;;;;15.41;70.43;100180.61;1817223;78;21046;-83
2021/08/18 03:51:18;;;;;;;12.88;4.30;;;;;;;15.48;70.44;100186.33;1817610;78;21038;-83
2021/08/18 03:53:45;;;;;;;9.38;4.22;;;;;;;15.66;70.65;100186.70;1817619;78;21006;-84
2021/08/18 03:56:11;;;;;;;10.80;4.65;;;;;;;16.13;70.75;100187.77;1817696;78;21730;-84
2021/08/18 03:58:38;;;;;;;8.23;3.72;;;;;;;16.76;70.67;100177.10;1817622;78;21511;-83
2021/08/18 04:01:06;;;;;;;8.68;4.20;;;;;;;17.47;69.88;100177.66;1817691;78;21038;-84
2021/08/18 04:03:33;;;;;;;9.53;4.60;;;;;;;17.86;68.68;100175.41;1817636;78;21049;-84
2021/08/18 04:06:00;;;;;;;8.33;3.75;;;;;;;17.95;67.64;100181.07;1809011;78;20995;-84
2021/08/18 04:08:27;;;;;;;8.45;4.55;;;;;;;18.11;67.16;100188.38;1815499;78;21687;-84
2021/08/18 04:10:53;;;;;;;7.67;4.00;;;;;;;18.05;66.76;100181.35;1718178;83;21669;-84
2021/08/18 04:13:20;;;;;;;8.35;3.70;;;;;;;18.63;67.52;100172.87;1718428;83;21101;-87
2021/08/18 04:15:47;;;;;;;9.55;4.28;;;;;;;19.11;66.09;100178.73;1718372;83;21544;-84
2021/08/18 04:18:13;;;;;;;11.88;3.58;;;;;;;19.68;65.94;100190.44;1718184;82;21085;-84
2021/08/18 04:20:40;;;;;;;9.70;3.47;;;;;;;20.35;65.01;100188.52;1718210;83;21717;-85
2021/08/18 04:23:07;;;;;;;8.60;3.35;;;;;;;20.50;63.50;100185.94;1718233;83;21007;-83
2021/08/18 04:25:37;;;;;;;9.50;4.10;;;;;;;20.48;63.28;100193.12;1718469;83;21574;-88
2021/08/18 04:28:04;;;;;;;6.58;3.40;;;;;;;20.81;62.29;100190.52;1718536;83;21555;-87
2021/08/18 04:30:32;;;;;;;8.58;3.60;;;;;;;20.61;61.22;100187.02;1718749;83;21547;-87
2021/08/18 04:32:59;;;;;;;7.17;3.35;;;;;;;20.04;60.61;100183.02;1718584;83;21811;-87
2021/08/18 04:35:25;;;;;;;7.62;3.05;;;;;;;19.55;60.82;100188.48;1718602;83;21077;-88
2021/08/18 04:37:52;;;;;;;8.33;3.52;;;;;;;19.22;61.00;100184.27;1718547;83;21057;-87
2021/08/18 04:40:21;;;;;;;6.22;3.45;;;;;;;18.95;61.03;100184.32;1718510;83;21109;-88
2021/08/18 04:42:48;;;;;;;10.15;3.62;;;;;;;18.67;61.20;100181.23;1748949;80;21046;-85
2021/08/18 04:45:16;;;;;;;9.40;3.60;;;;;;;18.44;61.46;100192.30;1767413;81;22592;-88
2021/08/18 04:47:45;;;;;;;10.78;4.70;;;;;;;18.24;61.60;100201.50;1767424;81;21023;-86
2021/08/18 04:50:13;;;;;;;7.30;3.17;;;;;;;18.06;61.87;100205.30;1767463;81;21051;-87
2021/08/18 04:52:41;;;;;;;9.53;3.62;;;;;;;18.00;62.17;100216.48;1763993;81;21040;-85
2021/08/18 04:55:08;;;;;;;8.80;3.83;;;;;;;17.93;62.28;100218.36;1754877;80;21102;-86
2021/08/18 04:57:35;;;;;;;6.28;3.60;;;;;;;17.87;62.35;100219.33;1767582;81;21750;-84
2021/08/18 05:00:02;;;;;;;9.70;3.85;;;;;;;17.79;62.50;100215.87;1767797;81;21035;-86
2021/08/18 05:02:32;;;;;;;9.30;3.52;;;;;;;17.76;62.56;100209.70;1768486;81;21106;-87
2021/08/18 05:05:00;;;;;;;6.00;3.20;;;;;;;17.67;62.55;100219.55;1829512;77;21070;-88
2021/08/18 05:07:30;;;;;;;7.72;3.37;;;;;;;17.60;62.74;100223.64;1828688;77;21057;-83
2021/08/18 05:09:59;;;;;;;14.70;3.70;;;;;;;17.57;62.77;100226.32;1841114;77;21824;-82
2021/08/18 05:12:26;;;;;;;7.60;3.70;;;;;;;17.52;62.93;100226.39;1812214;77;21020;-83
2021/08/18 05:14:53;;;;;;;8.93;3.60;;;;;;;17.47;63.02;100226.89;1817110;77;21106;-83
2021/08/18 05:17:19;;;;;;;9.70;3.45;;;;;;;17.39;63.15;100220.33;1817853;77;21317;-83
2021/08/18 05:19:54;;;;;;;7.42;3.62;;;;;;;17.31;63.23;100215.55;1813837;78;21035;-84
2021/08/18 05:22:25;;;;;;;8.23;3.72;;;;;;;17.18;63.32;100209.48;1812723;78;21262;-84
2021/08/18 05:24:52;;;;;;;8.35;4.20;;;;;;;17.18;63.50;100220.58;1816296;78;21034;-84
2021/08/18 05:27:22;;;;;;;8.00;4.42;;;;;;;17.12;63.52;100213.55;1817085;79;20991;-84
2021/08/18 05:29:48;;;;;;;8.38;3.47;;;;;;;17.03;63.60;100216.30;1805828;78;21110;-84
2021/08/18 05:32:15;;;;;;;11.95;4.12;;;;;;;16.98;63.66;100212.80;1816978;78;21061;-84
2021/08/18 05:34:41;;;;;;;8.75;3.87;;;;;;;16.95;63.79;100216.80;1816755;78;21716;-84
2021/08/18 05:37:08;;;;;;;8.75;3.77;;;;;;;16.92;63.81;100219.52;1816728;78;21026;-84
2021/08/18 05:39:35;;;;;;;9.18;3.72;;;;;;;16.85;63.79;100214.69;1816688;78;21066;-84
2021/08/18 05:42:01;;;;;;;11.63;4.10;;;;;;;16.82;63.89;100222.25;1816892;78;21061;-83
2021/08/18 05:44:28;;;;;;;13.83;3.85;;;;;;;16.82;63.94;100221.34;1817759;78;21015;-84
2021/08/18 05:46:55;;;;;;;9.03;4.15;;;;;;;16.80;63.96;100228.00;1817509;79;21807;-83
2021/08/18 05:49:22;;;;;;;8.03;4.08;;;;;;;16.80;63.96;100243.95;1817729;78;21080;-83
2021/08/18 05:51:49;;;;;;;9.10;4.20;;;;;;;16.79;63.99;100235.52;1817769;78;20983;-82
2021/08/18 05:54:16;;;;;;;9.75;4.35;;;;;;;16.78;64.05;100241.75;1817772;78;21041;-84
2021/08/18 05:56:43;;;;;;;10.93;4.05;;;;;;;16.78;64.10;100237.77;1817912;78;21057;-84
2021/08/18 05:59:09;;;;;;;12.35;4.70;;;;;;;16.77;63.97;100238.65;1808218;78;21721;-83
2021/08/18 06:01:38;;;;;;;13.05;4.55;;;;;;;16.75;63.98;100233.80;1818687;78;21117;-85
2021/08/18 06:04:04;;;;;;;15.23;4.83;;;;;;;16.74;64.01;100245.77;1818263;78;21065;-84
2021/08/18 06:06:31;;;;;;;10.03;5.00;;;;;;;16.75;64.05;100244.88;1818550;78;21174;-84
2021/08/18 06:08:58;;;;;;;9.20;4.28;;;;;;;16.77;64.00;100249.28;1818353;78;21055;-82
2021/08/18 06:11:25;;;;;;;14.70;4.78;;;;;;;16.78;64.00;100246.16;1817654;78;21852;-82
2021/08/18 06:13:52;;;;;;;10.98;4.37;;;;;;;16.81;63.96;100253.66;1817731;78;21073;-82
2021/08/18 06:16:20;;;;;;;8.03;4.72;;;;;;;16.82;63.96;100246.17;1817569;78;21046;-82
2021/08/18 06:18:47;;;;;;;9.50;5.10;;;;;;;16.84;63.94;100247.50;1817571;78;21230;-82
2021/08/18 06:21:18;;;;;;;15.90;6.10;;;;;;;16.88;63.91;100239.92;1817320;78;21158;-82
2021/08/18 06:23:47;;;;;;;9.65;4.22;;;;;;;16.89;63.83;100242.58;1817506;78;21892;-82
2021/08/18 06:26:17;;;;;;;8.80;4.42;;;;;;;16.92;63.89;100235.46;1786985;78;21081;-83
2021/08/18 06:28:45;;;;;;;8.18;4.62;;;;;;;16.96;63.82;100247.83;1818298;78;21004;-83
2021/08/18 06:31:14;;;;;;;14.07;5.58;;;;;;;16.97;63.79;100248.23;1788859;78;21105;-83
2021/08/18 06:33:40;;;;;;;9.30;4.62;;;;;;;16.99;63.80;100259.77;1817546;78;21121;-82
2021/08/18 06:36:07;;;;;;;12.25;5.30;;;;;;;17.02;63.77;100252.62;1817721;78;21911;-83
2021/08/18 06:38:34;;;;;;;12.82;4.87;;;;;;;17.07;63.67;100256.58;1817799;78;21011;-83
2021/08/18 06:41:00;;;;;;;13.53;4.62;;;;;;;17.05;63.60;100256.59;1817701;78;21003;-83
2021/08/18 06:43:27;;;;;;;14.35;4.90;;;;;;;17.08;63.59;100259.69;1817440;78;21187;-83
2021/08/18 06:45:54;;;;;;;11.00;5.08;;;;;;;17.14;63.60;100258.29;1817498;78;21038;-82
2021/08/18 06:48:21;;;;;;;10.90;5.37;;;;;;;17.20;63.50;100260.87;1817079;79;21960;-82
2021/08/18 06:50:48;;;;;;;10.28;5.20;;;;;;;17.24;63.30;100263.94;1808345;78;21054;-83
2021/08/18 06:53:14;;;;;;;7.37;4.60;;;;;;;17.25;63.13;100264.84;1815560;78;21049;-83
2021/08/18 06:55:41;;;;;;;7.50;4.95;;;;;;;17.27;63.13;100260.38;1817244;78;21112;-83
2021/08/18 06:58:07;;;;;;;8.78;4.95;;;;;;;17.31;63.03;100267.89;1817215;78;21070;-83
2021/08/18 07:00:34;;;;;;;13.93;5.60;;;;;;;17.35;62.95;100263.83;1817271;78;21778;-83
2021/08/18 07:03:01;;;;;;;14.95;5.70;;;;;;;17.38;62.74;100260.24;1817335;78;21045;-83
2021/08/18 07:05:32;;;;;;;9.08;4.45;;;;;;;17.39;62.72;100263.35;1803130;78;21481;-83
2021/08/18 07:07:57;;;;;;;9.88;4.80;;;;;;;17.46;62.75;100270.38;1806067;79;48861;-83
2021/08/18 07:10:24;;;;;;;15.65;5.25;;;;;;;17.49;62.57;100281.87;1817650;78;20992;-83
2021/08/18 07:12:50;;;;;;;11.08;5.50;;;;;;;17.53;62.48;100286.71;1816572;78;21768;-84
2021/08/18 07:15:17;;;;;;;12.03;5.15;;;;;;;17.57;62.43;100276.89;1817558;78;21519;-82
2021/08/18 07:17:46;;;;;;;14.23;6.12;;;;;;;17.61;62.40;100287.95;1817866;78;20987;-82
2021/08/18 07:20:13;;;;;;;10.13;5.00;;;;;;;17.67;62.34;100289.20;1808427;78;21222;-83
2021/08/18 07:22:39;;;;;;;11.75;5.08;;;;;;;17.77;62.22;100290.84;1817799;78;21019;-83
2021/08/18 07:25:07;;;;;;;9.10;4.67;;;;;;;17.82;62.00;100297.00;1817723;78;21749;-83
2021/08/18 07:27:33;;;;;;;11.08;4.25;;;;;;;17.91;61.95;100298.72;1817880;78;20998;-83
2021/08/18 07:30:01;;;;;;;14.20;5.70;;;;;;;17.94;61.64;100293.80;1817298;78;21042;-83
2021/08/18 07:32:27;;;;;;;7.03;4.70;;;;;;;17.98;61.55;100289.76;1817588;78;21634;-84
2021/08/18 07:34:54;;;;;;;9.10;4.87;;;;;;;17.99;61.36;100282.64;1817722;78;21057;-83
2021/08/18 07:37:22;;;;;;;13.32;4.62;;;;;;;17.99;61.29;100287.97;1817728;78;21737;-84
2021/08/18 07:39:48;;;;;;;9.13;4.85;;;;;;;18.00;61.22;100300.36;1817745;78;21077;-84
2021/08/18 07:42:15;;;;;;;9.60;4.60;;;;;;;18.08;61.29;100310.95;1814754;78;21082;-83
2021/08/18 07:44:42;;;;;;;9.83;4.50;;;;;;;18.18;61.17;100321.90;1817924;78;20999;-83
2021/08/18 07:47:09;;;;;;;9.45;5.22;;;;;;;18.22;61.02;100316.49;1817955;78;21586;-83
2021/08/18 07:49:36;;;;;;;5.83;4.33;;;;;;;18.28;60.85;100333.31;1817777;78;21799;-83
2021/08/18 07:52:04;;;;;;;8.10;4.78;;;;;;;18.33;60.74;100332.34;1817943;78;21018;-84
2021/08/18 07:54:31;;;;;;;8.38;4.55;;;;;;;18.38;60.56;100323.84;1814860;78;21129;-83
2021/08/18 07:56:58;;;;;;;6.72;4.58;;;;;;;18.42;60.55;100330.02;1817794;78;21081;-81
2021/08/18 07:59:25;;;;;;;5.90;4.10;;;;;;;18.45;60.44;100322.86;1817689;78;21062;-83
2021/08/18 08:01:51;;;;;;;7.17;4.50;;;;;;;18.55;60.44;100332.06;1813753;78;21780;-83
2021/08/18 08:04:18;;;;;;;12.30;4.50;;;;;;;18.66;60.38;100340.78;1817599;78;21070;-83
2021/08/18 08:06:45;;;;;;;11.70;4.58;;;;;;;18.70;60.06;100349.16;1817735;78;21062;-83
2021/08/18 08:09:12;;;;;;;5.70;4.17;;;;;;;18.68;60.12;100352.30;1817643;78;21094;-83
2021/08/18 08:11:38;;;;;;;13.98;5.20;;;;;;;18.70;60.00;100361.16;1817662;78;21293;-83
2021/08/18 08:14:14;;;;;;;6.75;4.80;;;;;;;18.68;59.96;100351.42;1817806;78;21197;-83
2021/08/18 08:16:42;;;;;;;8.80;5.35;;;;;;;18.70;59.89;100350.48;1789674;78;21588;-83
2021/08/18 08:19:08;;;;;;;8.08;4.45;;;;;;;18.70;59.71;100355.82;1817914;78;21054;-83
2021/08/18 08:21:35;;;;;;;13.90;5.97;;;;;;;18.78;59.78;100355.70;1817772;78;21181;-83
2021/08/18 08:24:02;;;;;;;11.97;5.03;;;;;;;18.80;59.60;100357.46;1817765;79;21046;-83
2021/08/18 08:26:28;;;;;;;9.35;5.05;;;;;;;18.77;59.44;100367.26;1817616;79;21758;-83
2021/08/18 08:29:00;;;;;;;7.97;4.40;;;;;;;18.67;59.24;100362.98;1817325;79;20999;-83
2021/08/18 08:31:28;;;;;;;7.10;4.35;;;;;;;18.59;59.34;100380.41;1817335;78;21062;-83
2021/08/18 08:33:55;;;;;;;9.10;5.28;;;;;;;18.58;59.35;100379.55;1817645;78;21136;-83
2021/08/18 08:36:22;;;;;;;8.10;4.78;;;;;;;18.54;59.38;100387.59;1791747;78;21300;-83
2021/08/18 08:38:48;;;;;;;11.78;5.00;;;;;;;18.54;59.35;100379.13;1819517;78;21755;-84
2021/08/18 08:41:15;;;;;;;10.03;4.75;;;;;;;18.60;59.37;100383.07;1817757;78;21085;-84
2021/08/18 08:43:42;;;;;;;12.70;5.17;;;;;;;18.63;59.21;100385.67;1817606;78;21085;-83
2021/08/18 08:46:09;;;;;;;12.23;4.60;;;;;;;18.76;59.26;100384.17;1817516;78;21062;-83
2021/08/18 08:48:35;;;;;;;8.53;4.72;;;;;;;18.92;59.10;100386.18;1817895;78;21108;-83
2021/08/18 08:51:02;;;;;;;9.15;5.03;;;;;;;19.06;58.90;100380.66;1811587;79;21784;-83
2021/08/18 08:53:29;;;;;;;10.98;4.20;;;;;;;19.22;58.75;100380.38;1817462;78;21066;-83
2021/08/18 08:55:56;;;;;;;10.13;5.12;;;;;;;19.36;58.42;100382.80;1817506;78;21690;-83
2021/08/18 08:58:22;;;;;;;11.75;4.65;;;;;;;19.45;58.21;100391.12;1817737;79;21051;-83
2021/08/18 09:00:49;;;;;;;7.92;4.50;;;;;;;19.48;57.98;100395.05;1757129;78;21071;-84
2021/08/18 09:03:23;;;;;;;8.73;4.80;;;;;;;19.46;57.61;100405.34;1807859;77;21798;-84
2021/08/18 09:05:49;;;;;;;;;;;;;;;19.41;57.60;100405.43;1807022;77;21452;-84
2021/08/18 09:08:21;;;;;;;8.15;4.12;;;;;;;19.35;57.27;100403.75;1807212;77;20195;-84
2021/08/18 09:11:11;;;;;;;14.93;4.70;;;;;;;19.24;57.46;100411.05;1819060;77;21014;-84
2021/08/18 09:13:50;;;;;;;9.73;4.42;;;;;;;19.28;57.59;100414.55;1798889;77;21023;-84
2021/08/18 09:16:21;;;;;;;8.63;4.65;;;;;;;19.32;57.27;100410.92;1770840;79;22053;-83
2021/08/18 09:18:51;;;;;;;12.33;4.35;;;;;;;19.36;57.23;100415.30;1767995;80;21556;-83
2021/08/18 09:21:37;;;;;;;8.83;4.83;;;;;;;19.47;57.19;100407.98;1736865;81;21059;-82
2021/08/18 09:24:22;;;;;;;7.17;4.45;;;;;;;19.72;57.17;100411.13;1812644;77;21070;-83
2021/08/18 09:26:55;;;;;;;10.70;4.70;;;;;;;20.01;56.85;100420.41;1822065;77;21050;-83
2021/08/18 09:29:36;;;;;;;10.93;4.53;;;;;;;20.07;56.31;100411.39;1809392;77;21745;-83
2021/08/18 09:32:32;;;;;;;17.27;6.50;;;;;;;20.08;55.89;100413.14;1807130;77;21038;-83
2021/08/18 09:35:10;;;;;;;7.90;4.00;;;;;;;20.03;55.90;100413.67;1809338;77;21050;-83
2021/08/18 09:37:38;;;;;;;10.72;4.20;;;;;;;20.18;55.96;100418.73;1826107;77;21501;-83
2021/08/18 09:40:22;;;;;;;8.73;4.65;;;;;;;20.33;55.70;100411.74;1818488;77;21111;-83
2021/08/18 09:42:48;;;;;;;9.65;4.80;;;;;;;20.53;55.42;100416.68;1770238;79;21971;-83
2021/08/18 09:45:24;;;;;;;9.25;4.70;;;;;;;20.64;54.91;100413.78;1742255;81;21043;-82
2021/08/18 09:48:01;;;;;;;10.28;5.30;;;;;;;20.73;54.81;100415.39;1782753;79;21074;-83
2021/08/18 09:50:40;;;;;;;8.43;4.60;;;;;;;20.91;54.52;100415.41;1772177;80;21040;-83
2021/08/18 09:53:17;;;;;;;7.10;3.95;;;;;;;21.06;54.32;100412.41;1755134;80;22171;-83
2021/08/18 09:55:54;;;;;;;9.05;4.75;;;;;;;21.29;54.12;100418.99;1773999;79;21767;-83
2021/08/18 09:58:33;;;;;;;10.25;4.53;;;;;;;21.50;53.71;100416.27;1739732;80;21583;-83
2021/08/18 10:01:11;;;;;;;14.60;4.53;;;;;;;21.67;53.39;100409.13;1750418;81;21053;-87
2021/08/18 10:03:38;;;;;;;13.20;4.58;;;;;;;21.90;53.01;100405.83;1757157;80;21529;-88
2021/08/18 10:06:07;;;;;;;11.97;5.10;;;;;;;22.10;52.41;100407.50;1749054;81;21121;-89
2021/08/18 10:08:34;;;;;;;6.12;4.40;;;;;;;22.28;52.17;100407.48;1777659;80;21750;-88
2021/08/18 10:11:00;;;;;;;7.55;4.37;;;;;;;22.56;51.76;100406.67;1778038;80;21000;-88
2021/08/18 10:13:27;;;;;;;6.62;4.55;;;;;;;22.61;51.12;100405.18;1770349;80;20995;-88
2021/08/18 10:15:55;;;;;;;9.68;4.95;;;;;;;22.56;51.03;100400.41;1779691;80;21008;-89
2021/08/18 10:18:34;;;;;;;10.38;4.40;;;;;;;22.71;51.18;100396.81;1780060;80;21027;-89
2021/08/18 10:21:06;;;;;;;10.32;4.20;;;;;;;22.92;50.64;100362.17;1778734;80;21878;-88
2021/08/18 10:24:00;;;;;;;7.45;4.28;;;;;;;23.13;50.19;100398.21;1779700;80;21023;-89
2021/08/18 10:26:39;;;;;;;11.15;5.25;;;;;;;23.39;49.94;100393.31;1780083;80;21008;-88
2021/08/18 10:29:15;;;;;;;10.00;4.45;;;;;;;23.35;49.02;100387.64;1779976;80;21071;-88
2021/08/18 10:31:47;;;;;;;14.40;4.75;;;;;;;23.22;48.84;100398.38;1779958;80;21043;-88
2021/08/18 10:34:41;;;;;;;7.85;4.00;;;;;;;23.33;48.96;100404.28;1779738;80;22596;-86
2021/08/18 10:37:16;;;;;;;9.38;4.55;;;;;;;23.56;48.84;100395.43;1779810;80;21062;-88
2021/08/18 10:39:51;;;;;;;7.22;4.05;;;;;;;23.57;48.16;100393.61;1779986;80;21019;-88
2021/08/18 10:42:38;;;;;;;9.93;4.20;;;;;;;23.27;47.97;100389.69;1813711;78;21487;-87
2021/08/18 10:45:24;;;;;;;7.35;4.17;;;;;;;23.07;48.06;100398.42;1790931;78;21018;-88
2021/08/18 10:47:48;;;;;;;8.55;4.35;;;;;;;22.96;48.06;100394.70;1796209;78;21772;-90
2021/08/18 10:50:26;;;;;;;7.95;4.25;;;;;;;22.90;48.07;100393.09;1819064;78;21473;-87
2021/08/18 10:52:57;;;;;;;14.95;5.05;;;;;;;22.89;48.14;100381.92;1811474;78;21061;-83
2021/08/18 10:55:29;;;;;;;8.68;4.25;;;;;;;22.86;48.09;100386.50;1802976;77;20987;-83
2021/08/18 10:58:03;;;;;;;10.90;3.90;;;;;;;22.86;48.01;100399.92;1841011;77;21024;-83
2021/08/18 11:00:34;;;;;;;;;;;;;;;22.74;47.46;100395.83;1844760;77;21800;-83
2021/08/18 11:03:19;;;;;;;7.05;4.33;;;;;;;22.60;47.49;100396.70;1841867;77;20773;-82
2021/08/18 11:05:51;;;;;;;9.55;3.87;;;;;;;22.60;47.49;100396.70;1806412;79;21066;-83
2021/08/18 11:08:40;;;;;;;6.00;4.10;;;;;;;22.54;47.52;100384.83;1807935;79;21085;-83
2021/08/18 11:11:11;;;;;;;9.33;3.70;;;;;;;22.43;47.48;100390.50;1807363;79;21054;-83
2021/08/18 11:14:08;;;;;;;11.40;3.72;;;;;;;22.31;47.23;100396.65;1808227;79;21762;-83
2021/08/18 11:16:35;;;;;;;9.63;4.15;;;;;;;22.20;47.23;100392.50;1808538;79;21026;-83
2021/08/18 11:19:11;;;;;;;7.65;4.22;;;;;;;22.12;47.40;100396.27;1808800;78;21023;-83
2021/08/18 11:21:40;;;;;;;7.53;3.83;;;;;;;22.12;47.57;100388.70;1808495;79;21074;-83
2021/08/18 11:24:10;;;;;;;10.18;4.37;;;;;;;22.12;47.70;100404.31;1808342;79;21120;-83
2021/08/18 11:26:42;;;;;;;10.00;4.20;;;;;;;22.21;47.52;100414.38;1808357;79;21759;-83
2021/08/18 11:29:12;;;;;;;12.07;3.55;;;;;;;22.41;46.93;100394.59;1808493;79;21588;-83